Time;durP1;ratioP1;P1;durP2;ratioP2;P2;SDS_P1;SDS_P2;PMS_P1;PMS_P2;Temp;Humidity;BMP_temperature;BMP_pressure;BME280_temperature;BME280_humidity;BME280_pressure;Samples;Min_cycle;Max_cycle;Signal;HPM_P1;HPM_P2
2022/04/09 00:01:25;;;;;;;0.00;0.00;;;;;;;17.54;43.53;96450.59;6098329;23;20010;-85
2022/04/09 00:03:51;;;;;;;0.03;0.03;;;;;;;17.45;43.56;96448.88;6096398;23;20013;-85
2022/04/09 00:06:17;;;;;;;1.98;0.90;;;;;;;17.39;43.75;96443.25;6097262;23;20014;-85
2022/04/09 00:08:43;;;;;;;0.43;0.20;;;;;;;17.30;43.90;96447.81;6096604;23;20006;-85
2022/04/09 00:11:08;;;;;;;0.03;0.03;;;;;;;17.25;44.09;96448.31;6097016;23;20002;-85
2022/04/09 00:13:35;;;;;;;0.00;0.00;;;;;;;17.21;44.48;96462.28;6096875;23;20507;-85
2022/04/09 00:16:00;;;;;;;0.00;0.00;;;;;;;17.12;44.47;96458.72;6095818;23;20005;-85
2022/04/09 00:18:26;;;;;;;0.00;0.00;;;;;;;16.98;44.86;96451.19;6099090;23;20006;-85
2022/04/09 00:20:52;;;;;;;0.17;0.17;;;;;;;16.87;45.12;96456.03;6124124;23;20054;-85
2022/04/09 00:23:18;;;;;;;0.00;0.00;;;;;;;16.85;45.29;96472.44;6096933;23;20347;-86
2022/04/09 00:25:45;;;;;;;0.00;0.00;;;;;;;16.70;45.89;96464.03;6120719;22;20014;-84
2022/04/09 00:28:10;;;;;;;0.13;0.13;;;;;;;16.62;45.78;96466.69;6096606;23;20364;-86
2022/04/09 00:30:46;;;;;;;0.00;0.00;;;;;;;16.43;46.66;96464.16;6096585;23;20002;-84
2022/04/09 00:33:12;;;;;;;0.00;0.00;;;;;;;16.33;46.90;96471.53;6096755;23;20513;-86
2022/04/09 00:35:38;;;;;;;0.00;0.00;;;;;;;16.30;47.06;96477.25;6096938;23;20014;-85
2022/04/09 00:38:03;;;;;;;0.00;0.00;;;;;;;16.11;47.16;96472.00;6096760;23;20013;-85
2022/04/09 00:40:29;;;;;;;0.00;0.00;;;;;;;16.07;47.37;96467.91;6120039;23;20428;-85
2022/04/09 00:42:54;;;;;;;0.00;0.00;;;;;;;16.04;48.08;96484.41;6096485;23;20009;-86
2022/04/09 00:45:21;;;;;;;0.00;0.00;;;;;;;15.88;nan;96484.25;6097341;23;20010;-86
2022/04/09 00:47:47;;;;;;;0.00;0.00;;;;;;;15.58;49.50;96474.69;6097302;23;20014;-85
2022/04/09 00:50:13;;;;;;;0.00;0.00;;;;;;;15.60;49.14;96489.69;6096240;23;20123;-85
2022/04/09 00:52:45;;;;;;;0.00;0.00;;;;;;;15.63;49.89;96491.25;6096722;23;20016;-85
2022/04/09 00:55:13;;;;;;;0.08;0.08;;;;;;;15.56;48.78;96476.69;6096562;23;20060;-84
2022/04/09 00:57:41;;;;;;;0.00;0.00;;;;;;;15.61;48.83;96475.25;6096589;23;20010;-84
2022/04/09 01:00:09;;;;;;;0.00;0.00;;;;;;;15.65;48.64;96484.72;6120749;23;20504;-85
2022/04/09 01:02:43;;;;;;;0.00;0.00;;;;;;;15.77;48.19;96487.19;6096477;23;20020;-84
2022/04/09 01:05:10;;;;;;;0.00;0.00;;;;;;;15.78;48.33;96476.22;6099586;23;20006;-85
2022/04/09 01:07:36;;;;;;;0.00;0.00;;;;;;;15.71;48.55;96481.41;6096841;23;20016;-86
2022/04/09 01:10:03;;;;;;;0.00;0.00;;;;;;;15.60;49.07;96478.91;6097595;23;20084;-85
2022/04/09 01:12:28;;;;;;;0.00;0.00;;;;;;;15.62;48.67;96481.47;6096630;23;20010;-86
2022/04/09 01:14:54;;;;;;;0.00;0.00;;;;;;;15.57;48.86;96471.13;6096128;23;20010;-84
2022/04/09 01:17:20;;;;;;;0.00;0.00;;;;;;;15.48;49.32;96463.97;6096465;23;20012;-85
2022/04/09 01:19:46;;;;;;;0.00;0.00;;;;;;;15.47;49.71;96472.19;6098165;23;20358;-86
2022/04/09 01:22:11;;;;;;;0.00;0.00;;;;;;;15.45;49.67;96472.31;6098160;23;20009;-86
2022/04/09 01:24:37;;;;;;;0.00;0.00;;;;;;;15.44;49.47;96475.19;6123737;23;20009;-85
2022/04/09 01:27:03;;;;;;;0.00;0.00;;;;;;;15.35;50.05;96463.44;6124744;23;20009;-85
2022/04/09 01:29:29;;;;;;;0.00;0.00;;;;;;;15.37;50.32;96466.00;6099524;23;20002;-85
2022/04/09 01:31:54;;;;;;;0.00;0.00;;;;;;;15.33;50.34;96469.97;6098744;23;20006;-84
2022/04/09 01:34:20;;;;;;;0.28;0.15;;;;;;;15.51;48.65;96458.28;6121953;23;20408;-83
2022/04/09 01:36:47;;;;;;;0.13;0.13;;;;;;;15.65;48.13;96460.47;6097904;23;20148;-84
2022/04/09 01:39:13;;;;;;;0.00;0.00;;;;;;;15.64;48.85;96474.06;6096897;23;20331;-85
2022/04/09 01:41:38;;;;;;;0.00;0.00;;;;;;;15.50;49.50;96461.97;6096758;23;20018;-85
2022/04/09 01:44:04;;;;;;;0.00;0.00;;;;;;;15.48;49.93;96482.81;6098880;23;20020;-84
2022/04/09 01:46:30;;;;;;;0.00;0.00;;;;;;;15.31;50.49;96478.22;6122677;23;20013;-85
2022/04/09 01:48:55;;;;;;;0.00;0.00;;;;;;;15.17;50.91;96481.41;6122523;23;20002;-85
2022/04/09 01:51:21;;;;;;;0.00;0.00;;;;;;;15.03;51.55;96481.91;6100064;23;20013;-85
2022/04/09 01:53:47;;;;;;;0.00;0.00;;;;;;;14.92;52.14;96487.50;6097089;23;20005;-86
2022/04/09 01:56:12;;;;;;;0.00;0.00;;;;;;;14.83;52.73;96494.59;6121818;23;20005;-85
2022/04/09 01:58:38;;;;;;;0.00;0.00;;;;;;;14.73;52.81;96492.94;6096803;23;20408;-85
2022/04/09 02:01:03;;;;;;;0.00;0.00;;;;;;;14.54;53.30;96488.44;6096821;23;20033;-86
2022/04/09 02:03:29;;;;;;;0.00;0.00;;;;;;;14.50;53.71;96497.81;6120436;23;20081;-85
2022/04/09 02:05:54;;;;;;;0.00;0.00;;;;;;;14.41;54.45;96502.22;6096056;23;20010;-85
2022/04/09 02:08:20;;;;;;;0.00;0.00;;;;;;;14.31;54.20;96501.34;6094902;23;20353;-85
2022/04/09 02:10:46;;;;;;;0.00;0.00;;;;;;;14.24;54.59;96500.22;6120335;23;20009;-85
2022/04/09 02:13:13;;;;;;;0.00;0.00;;;;;;;14.21;55.11;96513.97;6096137;23;20061;-85
2022/04/09 02:15:38;;;;;;;0.10;0.10;;;;;;;14.01;55.54;96502.34;6096561;23;20071;-85
2022/04/09 02:18:04;;;;;;;0.00;0.00;;;;;;;13.97;55.60;96514.38;6095946;23;20014;-85
2022/04/09 02:20:30;;;;;;;0.00;0.00;;;;;;;13.98;55.83;96518.78;6095921;23;20014;-86
2022/04/09 02:22:55;;;;;;;0.10;0.10;;;;;;;13.87;56.13;96513.50;6095700;23;20081;-85
2022/04/09 02:25:21;;;;;;;0.00;0.00;;;;;;;13.84;56.55;96518.34;6095847;23;20144;-86
2022/04/09 02:27:46;;;;;;;0.00;0.00;;;;;;;13.81;56.60;96513.25;6095297;23;20010;-85
2022/04/09 02:30:12;;;;;;;0.10;0.10;;;;;;;13.72;56.48;96497.97;6095464;23;20440;-86
2022/04/09 02:32:46;;;;;;;0.05;0.05;;;;;;;13.73;56.99;96489.75;6095602;23;20034;-86
2022/04/09 02:35:12;;;;;;;0.30;0.30;;;;;;;13.65;57.00;96489.63;6095359;23;20468;-86
2022/04/09 02:37:38;;;;;;;0.10;0.10;;;;;;;13.58;57.17;96478.56;6095603;23;20434;-85
2022/04/09 02:40:05;;;;;;;0.00;0.00;;;;;;;13.61;57.16;96490.00;6095555;23;20025;-85
2022/04/09 02:42:31;;;;;;;0.00;0.00;;;;;;;13.64;57.29;96495.97;6095895;23;20013;-85
2022/04/09 02:44:56;;;;;;;0.00;0.00;;;;;;;13.57;57.27;96487.59;6095640;23;20010;-86
2022/04/09 02:47:22;;;;;;;0.00;0.00;;;;;;;13.59;57.95;96500.91;6095576;23;20077;-85
2022/04/09 02:50:11;;;;;;;0.00;0.00;;;;;;;13.58;58.24;96500.06;6095009;23;20006;-86
2022/04/09 02:52:38;;;;;;;0.52;0.22;;;;;;;13.51;57.91;96485.47;6095790;23;20013;-85
2022/04/09 02:55:05;;;;;;;0.00;0.00;;;;;;;13.44;58.72;96491.56;6095856;23;20067;-86
2022/04/09 02:57:31;;;;;;;0.00;0.00;;;;;;;13.43;58.40;96482.66;6095393;23;20564;-85
2022/04/09 02:59:57;;;;;;;0.00;0.00;;;;;;;13.41;58.25;96459.59;6096096;23;20014;-86
2022/04/09 03:02:23;;;;;;;0.00;0.00;;;;;;;13.46;58.73;96462.72;6094648;23;20056;-85
2022/04/09 03:04:49;;;;;;;0.10;0.10;;;;;;;13.42;58.49;96461.28;6094905;23;20013;-85
2022/04/09 03:07:14;;;;;;;0.00;0.00;;;;;;;13.50;58.14;96442.66;6095997;23;20113;-85
2022/04/09 03:09:40;;;;;;;0.00;0.00;;;;;;;13.54;58.18;96431.47;6095538;23;20006;-85
2022/04/09 03:12:06;;;;;;;0.00;0.00;;;;;;;13.55;57.83;96435.84;6095440;23;20010;-85
2022/04/09 03:14:31;;;;;;;0.00;0.00;;;;;;;13.67;56.78;96433.03;6095613;23;20013;-86
2022/04/09 03:16:57;;;;;;;0.00;0.00;;;;;;;13.61;57.15;96430.91;6104999;23;20009;-84
2022/04/09 03:19:23;;;;;;;5.35;4.68;;;;;;;13.79;55.87;96423.81;6101659;23;20032;-86
2022/04/09 03:22:09;;;;;;;0.00;0.00;;;;;;;13.86;55.44;96427.66;6096674;23;20067;-85
2022/04/09 03:24:34;;;;;;;0.00;0.00;;;;;;;13.94;55.48;96425.09;6119547;23;20469;-85
2022/04/09 03:26:59;;;;;;;0.00;0.00;;;;;;;14.11;54.42;96410.94;6095022;23;20002;-85
2022/04/09 03:29:25;;;;;;;0.10;0.10;;;;;;;14.24;53.98;96414.16;6094317;23;20132;-86
2022/04/09 03:31:51;;;;;;;0.00;0.00;;;;;;;14.34;53.44;96401.53;6095110;23;20002;-85
2022/04/09 03:34:28;;;;;;;0.00;0.00;;;;;;;14.11;55.38;96395.66;6096045;23;20006;-86
2022/04/09 03:36:54;;;;;;;0.00;0.00;;;;;;;13.96;54.77;96394.41;6096471;23;20491;-85
2022/04/09 03:39:25;;;;;;;0.00;0.00;;;;;;;14.03;55.26;96398.19;6119758;23;20002;-83
2022/04/09 03:41:51;;;;;;;0.00;0.00;;;;;;;13.79;55.22;96375.44;6120453;23;20006;-85
2022/04/09 03:44:17;;;;;;;0.00;0.00;;;;;;;13.82;54.46;96372.47;6121015;23;20437;-84
2022/04/09 03:46:42;;;;;;;0.00;0.00;;;;;;;13.94;54.66;96382.06;6097052;23;20002;-85
2022/04/09 03:49:08;;;;;;;0.00;0.00;;;;;;;14.08;53.93;96368.19;6097569;23;20010;-85
2022/04/09 03:51:42;;;;;;;0.00;0.00;;;;;;;14.30;53.21;96367.84;6121502;22;20405;-84
2022/04/09 03:54:08;;;;;;;0.00;0.00;;;;;;;14.57;53.87;96392.13;6097862;23;20435;-85
2022/04/09 03:56:34;;;;;;;0.00;0.00;;;;;;;14.32;54.29;96373.94;6096964;23;20048;-84
2022/04/09 03:59:02;;;;;;;0.00;0.00;;;;;;;14.17;55.06;96393.34;6097456;23;20033;-86
2022/04/09 04:01:28;;;;;;;0.00;0.00;;;;;;;13.86;55.42;96371.22;6098457;23;20365;-85
2022/04/09 04:03:54;;;;;;;0.00;0.00;;;;;;;13.84;55.90;96389.31;6098627;23;20017;-85
2022/04/09 04:06:20;;;;;;;0.00;0.00;;;;;;;13.84;56.30;96413.53;6097581;23;20009;-85
2022/04/09 04:08:46;;;;;;;0.00;0.00;;;;;;;13.65;57.12;96400.09;6097104;23;20033;-85
2022/04/09 04:11:14;;;;;;;0.00;0.00;;;;;;;13.66;56.95;96393.72;6122204;23;20065;-84
2022/04/09 04:13:44;;;;;;;0.03;0.03;;;;;;;13.66;57.06;96407.16;6099140;23;20010;-83
2022/04/09 04:16:10;;;;;;;0.00;0.00;;;;;;;13.34;57.73;96375.19;6097841;23;20085;-79
2022/04/09 04:18:36;;;;;;;0.00;0.00;;;;;;;13.40;58.10;96399.66;6119428;23;20037;-76
2022/04/09 04:21:05;;;;;;;0.00;0.00;;;;;;;13.47;58.28;96414.19;6119190;23;19998;-79
2022/04/09 04:23:49;;;;;;;0.00;0.00;;;;;;;13.37;59.34;96412.53;6095965;23;20012;-81
2022/04/09 04:26:15;;;;;;;0.00;0.00;;;;;;;13.42;58.70;96405.72;6120344;23;20523;-80
2022/04/09 04:28:40;;;;;;;0.25;0.25;;;;;;;13.43;58.48;96409.28;6095737;23;20006;-81
2022/04/09 04:31:07;;;;;;;2.33;2.20;;;;;;;13.58;58.73;96403.34;6119522;23;20054;-83
2022/04/09 04:33:32;;;;;;;0.00;0.00;;;;;;;13.56;57.99;96383.84;6098417;23;20361;-83
2022/04/09 04:35:58;;;;;;;0.00;0.00;;;;;;;13.62;58.24;96378.88;6099061;23;20009;-82
2022/04/09 04:38:24;;;;;;;0.00;0.00;;;;;;;13.76;57.45;96394.56;6100166;23;20006;-83
2022/04/09 04:40:51;;;;;;;0.00;0.00;;;;;;;13.99;56.24;96383.38;6097469;23;20017;-81
2022/04/09 04:43:19;;;;;;;0.00;0.00;;;;;;;14.20;56.86;96393.91;6096998;23;20036;-80
2022/04/09 04:45:45;;;;;;;0.00;0.00;;;;;;;14.30;56.29;96394.75;6101372;23;20066;-78
2022/04/09 04:48:10;;;;;;;0.30;0.30;;;;;;;14.23;56.15;96399.00;6094522;23;20006;-78
2022/04/09 04:50:39;;;;;;;0.00;0.00;;;;;;;14.50;55.41;96393.72;6095189;23;20006;-76
2022/04/09 04:53:05;;;;;;;0.00;0.00;;;;;;;14.89;54.98;96401.63;6094920;23;20379;-78
2022/04/09 04:55:30;;;;;;;1.00;0.90;;;;;;;15.19;53.91;96387.84;6094564;23;20006;-78
2022/04/09 04:57:56;;;;;;;0.00;0.00;;;;;;;15.50;53.07;96381.13;6118171;23;20001;-77
2022/04/09 05:00:24;;;;;;;0.00;0.00;;;;;;;15.95;52.37;96385.56;6094143;23;20008;-76
2022/04/09 05:02:51;;;;;;;0.00;0.00;;;;;;;16.65;50.72;96368.31;6118066;23;20028;-76
2022/04/09 05:05:17;;;;;;;0.00;0.00;;;;;;;17.07;49.99;96371.88;6094281;23;20354;-78
2022/04/09 05:07:50;;;;;;;0.00;0.00;;;;;;;16.95;51.20;96385.88;6119211;23;20349;-77
2022/04/09 05:10:21;;;;;;;0.00;0.00;;;;;;;17.21;48.97;96379.38;6094334;23;20006;-77
2022/04/09 05:12:48;;;;;;;0.00;0.00;;;;;;;17.70;48.29;96371.38;6094189;23;20776;-77
2022/04/09 05:15:16;;;;;;;0.00;0.00;;;;;;;18.08;47.11;96353.63;6094579;23;20409;-78
2022/04/09 05:17:42;;;;;;;0.08;0.08;;;;;;;18.26;46.48;96362.41;6118368;23;20002;-78
2022/04/09 05:20:10;;;;;;;1.10;1.10;;;;;;;18.34;46.36;96365.09;6094153;23;20430;-77
2022/04/09 05:22:43;;;;;;;0.00;0.00;;;;;;;18.63;45.96;96368.13;6120442;23;20010;-80
2022/04/09 05:25:10;;;;;;;0.10;0.10;;;;;;;19.17;45.07;96370.94;6098071;23;20013;-82
2022/04/09 05:27:36;;;;;;;0.00;0.00;;;;;;;19.77;44.12;96358.41;6121795;23;20001;-82
2022/04/09 05:30:15;;;;;;;0.00;0.00;;;;;;;20.81;42.08;96358.47;6096398;23;20010;-83
2022/04/09 05:33:09;;;;;;;;;;;;;;;;;;;;;
2022/04/09 05:35:35;;;;;;;0.00;0.00;;;;;;;24.86;35.10;96319.59;6140205;23;20093;-83
2022/04/09 05:38:09;;;;;;;0.00;0.00;;;;;;;25.94;32.86;96266.66;6124762;23;20031;-81
2022/04/09 05:40:34;;;;;;;3.42;3.08;;;;;;;26.88;31.73;96292.03;6121233;23;20021;-82
2022/04/09 05:43:00;;;;;;;2.97;2.80;;;;;;;28.10;30.52;96301.06;6121549;23;20005;-81
2022/04/09 05:45:25;;;;;;;0.00;0.00;;;;;;;29.44;28.32;96285.31;6095826;23;20468;-85
2022/04/09 05:47:51;;;;;;;0.00;0.00;;;;;;;30.83;26.55;96274.63;6119510;23;20013;-83
2022/04/09 05:50:17;;;;;;;0.00;0.00;;;;;;;31.84;24.82;96259.44;6095561;23;20028;-81
2022/04/09 05:52:43;;;;;;;0.00;0.00;;;;;;;32.05;24.34;96269.66;6119127;23;20032;-81
2022/04/09 05:55:10;;;;;;;0.00;0.00;;;;;;;31.78;24.56;96274.31;6096752;23;20010;-84
2022/04/09 05:57:36;;;;;;;0.00;0.00;;;;;;;32.96;23.21;96273.22;6096126;23;20009;-82
2022/04/09 06:00:04;;;;;;;0.00;0.00;;;;;;;32.79;23.21;96276.16;6119484;23;20002;-80
2022/04/09 06:02:30;;;;;;;0.00;0.00;;;;;;;33.05;23.01;96268.81;6116798;23;20002;-77
2022/04/09 06:04:55;;;;;;;0.80;0.80;;;;;;;34.38;21.53;96258.84;6092259;23;20013;-77
2022/04/09 06:07:22;;;;;;;0.05;0.05;;;;;;;33.52;21.94;96264.13;6117868;23;20013;-76
2022/04/09 06:09:49;;;;;;;0.00;0.00;;;;;;;32.30;22.53;96264.38;6093833;23;20001;-77
2022/04/09 06:12:15;;;;;;;0.15;0.15;;;;;;;31.74;23.29;96264.84;6094595;23;20100;-77
2022/04/09 06:14:40;;;;;;;0.00;0.00;;;;;;;32.81;22.60;96262.03;6118216;23;20037;-76
2022/04/09 06:17:06;;;;;;;0.00;0.00;;;;;;;32.02;22.78;96253.53;6118601;23;20010;-77
2022/04/09 06:19:31;;;;;;;0.10;0.10;;;;;;;32.56;22.28;96237.75;6093946;23;20030;-77
2022/04/09 06:21:57;;;;;;;0.00;0.00;;;;;;;32.55;22.56;96250.72;6117602;23;20436;-76
2022/04/09 06:24:23;;;;;;;0.00;0.00;;;;;;;31.71;22.52;96257.06;6091841;23;20074;-77
2022/04/09 06:26:48;;;;;;;0.00;0.00;;;;;;;32.25;22.51;96250.47;6118026;23;20005;-78
2022/04/09 06:29:18;;;;;;;0.00;0.00;;;;;;;32.81;21.98;96240.69;6094661;23;20002;-78
2022/04/09 06:31:47;;;;;;;0.00;0.00;;;;;;;32.84;21.57;96228.22;6125136;22;20081;-78
2022/04/09 06:34:17;;;;;;;1.20;0.75;;;;;;;31.51;23.08;96241.06;6117605;23;20002;-77
2022/04/09 06:36:43;;;;;;;0.00;0.00;;;;;;;30.89;23.65;96240.44;6117594;23;20006;-76
2022/04/09 06:39:09;;;;;;;0.10;0.10;;;;;;;29.62;24.43;96244.88;6093454;23;20335;-76
2022/04/09 06:41:35;;;;;;;0.00;0.00;;;;;;;29.72;24.79;96245.06;6092543;23;20091;-76
2022/04/09 06:44:01;;;;;;;0.00;0.00;;;;;;;28.71;25.67;96246.47;6116970;23;20090;-80
2022/04/09 06:46:27;;;;;;;0.00;0.00;;;;;;;29.66;24.96;96237.75;6117864;23;20059;-77
2022/04/09 06:48:52;;;;;;;0.00;0.00;;;;;;;30.56;24.17;96236.66;6119635;23;20412;-79
2022/04/09 06:51:18;;;;;;;0.00;0.00;;;;;;;29.87;24.69;96237.13;6093144;23;20026;-75
2022/04/09 06:53:44;;;;;;;0.00;0.00;;;;;;;30.05;24.49;96236.91;6093226;23;20137;-76
2022/04/09 06:56:09;;;;;;;0.00;0.00;;;;;;;28.20;25.97;96222.41;6117190;23;20030;-76
2022/04/09 06:58:35;;;;;;;0.20;0.20;;;;;;;28.02;26.05;96228.78;6092660;23;20010;-76
2022/04/09 07:01:01;;;;;;;0.00;0.00;;;;;;;28.80;26.01;96235.94;6093139;23;20006;-77
2022/04/09 07:03:27;;;;;;;0.03;0.03;;;;;;;28.61;25.84;96229.69;6117329;23;20001;-77
2022/04/09 07:05:53;;;;;;;0.20;0.20;;;;;;;27.32;26.61;96230.44;6093927;23;20025;-77
2022/04/09 07:08:19;;;;;;;0.00;0.00;;;;;;;27.70;26.74;96234.81;6094324;23;20013;-77
2022/04/09 07:10:45;;;;;;;0.00;0.00;;;;;;;28.11;26.56;96240.34;6094565;23;20014;-77
2022/04/09 07:13:11;;;;;;;0.00;0.00;;;;;;;29.14;25.85;96234.19;6118568;23;20511;-76
2022/04/09 07:15:36;;;;;;;0.10;0.10;;;;;;;28.89;24.98;96228.97;6117534;23;20010;-76
2022/04/09 07:18:02;;;;;;;0.00;0.00;;;;;;;28.89;25.56;96221.56;6118664;23;20415;-76
2022/04/09 07:20:29;;;;;;;0.00;0.00;;;;;;;29.00;24.84;96214.38;6119083;23;20060;-76
2022/04/09 07:22:55;;;;;;;0.45;0.28;;;;;;;28.52;25.59;96215.47;6118921;23;20013;-75
2022/04/09 07:25:21;;;;;;;0.00;0.00;;;;;;;27.53;26.60;96222.81;6095463;23;20002;-82
2022/04/09 07:27:48;;;;;;;0.00;0.00;;;;;;;28.06;26.29;96217.34;6095692;23;20020;-80
2022/04/09 07:30:19;;;;;;;0.20;0.20;;;;;;;29.02;25.36;96209.44;6118907;23;20457;-75
2022/04/09 07:32:45;;;;;;;0.00;0.00;;;;;;;30.58;23.68;96195.81;6094361;23;20088;-74
2022/04/09 07:35:12;;;;;;;0.00;0.00;;;;;;;30.23;23.46;96195.25;6119040;23;20449;-75
2022/04/09 07:37:46;;;;;;;0.20;0.20;;;;;;;29.69;24.76;96194.00;6119030;23;20317;-75
2022/04/09 07:40:14;;;;;;;0.00;0.00;;;;;;;30.15;24.10;96190.16;6093981;23;20018;-74
2022/04/09 07:42:41;;;;;;;0.10;0.10;;;;;;;30.08;24.10;96197.78;6094326;23;20502;-75
2022/04/09 07:45:07;;;;;;;1.92;0.45;;;;;;;29.74;23.65;96183.09;6120537;23;20014;-76
2022/04/09 07:47:32;;;;;;;0.08;0.08;;;;;;;29.79;24.75;96187.84;6118844;23;20041;-77
2022/04/09 07:50:00;;;;;;;0.15;0.15;;;;;;;29.70;28.15;96214.13;6094791;23;20009;-73
2022/04/09 07:52:26;;;;;;;0.05;0.05;;;;;;;29.61;27.29;96210.94;6119322;23;20005;-76
2022/04/09 07:54:58;;;;;;;0.00;0.00;;;;;;;28.65;30.23;96210.81;6118983;23;20002;-76
2022/04/09 07:57:27;;;;;;;0.00;0.00;;;;;;;29.09;31.60;96226.69;6119549;23;20121;-76
2022/04/09 08:00:01;;;;;;;0.00;0.00;;;;;;;29.64;30.21;96215.13;6118541;23;20024;-73
2022/04/09 08:02:36;;;;;;;0.00;0.00;;;;;;;30.78;25.88;96187.00;6119177;23;20331;-80
2022/04/09 08:05:02;;;;;;;0.20;0.20;;;;;;;29.79;30.16;96212.66;6096274;23;20001;-81
2022/04/09 08:07:27;;;;;;;0.10;0.10;;;;;;;30.73;26.51;96216.50;6094527;23;20339;-77
2022/04/09 08:09:53;;;;;;;0.00;0.00;;;;;;;30.91;23.91;96191.34;6118598;23;19998;-75
2022/04/09 08:12:19;;;;;;;0.10;0.10;;;;;;;29.17;27.03;96204.25;6120307;23;20060;-74
2022/04/09 08:14:44;;;;;;;0.00;0.00;;;;;;;29.65;25.53;96194.75;6118177;23;20005;-73
2022/04/09 08:17:10;;;;;;;0.20;0.20;;;;;;;29.72;26.45;96200.97;6120112;23;20353;-74
2022/04/09 08:19:36;;;;;;;0.00;0.00;;;;;;;29.52;26.85;96216.03;6094545;23;20034;-77
2022/04/09 08:22:03;;;;;;;0.55;0.55;;;;;;;30.41;26.06;96217.09;6094610;23;20552;-75
2022/04/09 08:24:29;;;;;;;0.05;0.05;;;;;;;31.73;24.24;96196.78;6118844;23;20121;-75
2022/04/09 08:26:55;;;;;;;0.00;0.00;;;;;;;33.17;23.36;96198.25;6094772;23;20045;-76
2022/04/09 08:29:20;;;;;;;0.00;0.00;;;;;;;34.29;22.59;96197.47;6094471;23;20404;-74
2022/04/09 08:31:47;;;;;;;0.00;0.00;;;;;;;33.57;22.25;96189.25;6119131;23;20002;-76
2022/04/09 08:34:17;;;;;;;0.00;0.00;;;;;;;33.92;20.19;96182.97;6094478;23;20010;-76
2022/04/09 08:36:43;;;;;;;0.45;0.43;;;;;;;30.96;23.64;96172.09;6118764;23;20002;-75
2022/04/09 08:39:09;;;;;;;2.08;0.15;;;;;;;30.40;25.04;96195.25;6118495;23;20010;-74
2022/04/09 08:41:36;;;;;;;0.30;0.28;;;;;;;30.87;23.58;96199.28;6094052;23;20362;-78
2022/04/09 08:44:02;;;;;;;0.10;0.10;;;;;;;31.85;24.31;96206.59;6094485;23;20009;-76
2022/04/09 08:46:27;;;;;;;0.00;0.00;;;;;;;31.34;23.30;96202.44;6118240;23;20005;-77
2022/04/09 08:48:53;;;;;;;0.00;0.00;;;;;;;32.11;22.95;96211.31;6118853;23;20469;-75
2022/04/09 08:51:19;;;;;;;0.17;0.17;;;;;;;31.91;21.68;96210.25;6094048;23;20010;-75
2022/04/09 08:53:46;;;;;;;0.00;0.00;;;;;;;31.98;22.43;96200.66;6118575;23;20352;-75
2022/04/09 08:56:12;;;;;;;0.00;0.00;;;;;;;32.13;21.85;96194.44;6118982;23;20009;-74
2022/04/09 08:58:38;;;;;;;0.00;0.00;;;;;;;32.43;22.23;96191.91;6094320;23;20002;-75
2022/04/09 09:01:03;;;;;;;0.00;0.00;;;;;;;34.98;19.91;96190.47;6120590;23;20457;-76
2022/04/09 09:03:29;;;;;;;0.00;0.00;;;;;;;35.16;19.39;96184.31;6118596;23;20006;-76
2022/04/09 09:05:55;;;;;;;0.80;0.30;;;;;;;33.55;20.66;96190.63;6118699;23;20002;-76
2022/04/09 09:08:41;;;;;;;0.00;0.00;;;;;;;33.00;20.44;96191.19;6118676;23;20068;-77
2022/04/09 09:11:06;;;;;;;0.00;0.00;;;;;;;32.76;21.46;96185.25;6118623;23;20445;-76
2022/04/09 09:13:51;;;;;;;0.35;0.35;;;;;;;31.03;23.03;96169.97;6120019;23;20067;-76
2022/04/09 09:16:31;;;;;;;0.00;0.00;;;;;;;31.71;22.38;96190.69;6118376;23;19998;-74
2022/04/09 09:19:04;;;;;;;0.10;0.10;;;;;;;32.08;22.16;96188.88;6094317;23;20467;-73
2022/04/09 09:21:30;;;;;;;0.10;0.10;;;;;;;32.24;21.90;96176.81;6094126;23;20083;-74
2022/04/09 09:24:11;;;;;;;0.73;0.30;;;;;;;32.51;21.79;96176.75;6118642;23;20001;-76
2022/04/09 09:26:40;;;;;;;0.00;0.00;;;;;;;33.75;20.66;96179.59;6120063;23;20010;-74
2022/04/09 09:29:08;;;;;;;0.00;0.00;;;;;;;33.38;20.83;96188.06;6094473;23;20017;-77
2022/04/09 09:31:44;;;;;;;0.00;0.00;;;;;;;35.03;19.59;96171.81;6118715;23;20013;-77
2022/04/09 09:34:16;;;;;;;0.00;0.00;;;;;;;36.90;18.32;96174.25;6118376;23;20446;-74
2022/04/09 09:36:43;;;;;;;0.22;0.22;;;;;;;38.48;17.07;96157.91;6094217;23;20354;-75
2022/04/09 09:39:14;;;;;;;0.00;0.00;;;;;;;38.46;16.68;96148.97;6118117;23;20010;-75
2022/04/09 09:41:47;;;;;;;0.00;0.00;;;;;;;38.86;15.96;96155.81;6118463;23;20025;-75
2022/04/09 09:44:13;;;;;;;0.00;0.00;;;;;;;37.61;17.01;96142.72;6094172;23;20318;-77
2022/04/09 09:46:39;;;;;;;0.10;0.10;;;;;;;35.55;17.48;96124.03;6093968;23;20012;-77
2022/04/09 09:49:04;;;;;;;0.00;0.00;;;;;;;35.00;19.33;96138.19;6118447;23;20178;-76
2022/04/09 09:51:30;;;;;;;0.00;0.00;;;;;;;33.37;19.89;96133.72;6093744;23;20014;-76
2022/04/09 09:54:11;;;;;;;0.00;0.00;;;;;;;33.92;19.73;96140.50;6093528;23;20006;-76
2022/04/09 09:56:39;;;;;;;0.00;0.00;;;;;;;33.91;18.84;96124.94;6118568;23;20036;-75
2022/04/09 09:59:15;;;;;;;0.00;0.00;;;;;;;34.21;19.44;96125.81;6117959;23;20074;-77
2022/04/09 10:01:42;;;;;;;0.00;0.00;;;;;;;34.62;18.79;96126.63;6118260;23;20009;-76
2022/04/09 10:04:09;;;;;;;0.00;0.00;;;;;;;35.11;18.53;96123.16;6093603;23;20033;-77
2022/04/09 10:06:36;;;;;;;0.00;0.00;;;;;;;34.56;18.50;96108.25;6093325;23;20006;-77
2022/04/09 10:09:05;;;;;;;0.10;0.10;;;;;;;32.81;19.81;96106.88;6118241;23;20006;-77
2022/04/09 10:11:35;;;;;;;0.00;0.00;;;;;;;33.05;20.32;96121.94;6118479;23;20006;-77
2022/04/09 10:14:02;;;;;;;0.00;0.00;;;;;;;34.73;18.21;96103.22;6094203;23;20006;-77
2022/04/09 10:16:36;;;;;;;0.00;0.00;;;;;;;35.79;17.83;96093.56;6093870;23;20002;-77
2022/04/09 10:19:04;;;;;;;0.00;0.00;;;;;;;35.79;17.30;96094.41;6093905;23;20089;-77
2022/04/09 10:21:31;;;;;;;0.00;0.00;;;;;;;34.79;18.26;96090.19;6094188;23;20013;-77
2022/04/09 10:23:58;;;;;;;0.20;0.20;;;;;;;33.41;18.83;96087.69;6094156;23;20005;-77
2022/04/09 10:26:25;;;;;;;0.00;0.00;;;;;;;33.00;19.48;96083.97;6118377;23;20010;-76
2022/04/09 10:28:52;;;;;;;0.10;0.10;;;;;;;33.18;19.57;96102.88;6093824;23;20354;-76
2022/04/09 10:31:23;;;;;;;0.13;0.13;;;;;;;32.61;20.14;96121.44;6118064;23;20346;-77
2022/04/09 10:33:54;;;;;;;;;;;;;;;29.83;22.50;96092.53;6120598;23;19998;-75
2022/04/09 10:36:45;;;;;;;0.05;0.05;;;;;;;28.81;23.76;96119.25;6118013;23;19954;-75
2022/04/09 10:39:39;;;;;;;0.13;0.13;;;;;;;27.88;24.39;96100.03;6117796;22;20006;-75
2022/04/09 10:42:05;;;;;;;0.00;0.00;;;;;;;27.69;25.14;96098.47;6242609;23;20038;-76
2022/04/09 10:44:43;;;;;;;0.10;0.10;;;;;;;28.44;24.01;96103.03;6241684;23;20083;-75
2022/04/09 10:47:11;;;;;;;0.00;0.00;;;;;;;29.42;22.99;96091.81;6241774;22;20012;-75
2022/04/09 10:49:40;;;;;;;0.00;0.00;;;;;;;29.71;23.30;96094.50;6216962;23;20004;-74
2022/04/09 10:52:14;;;;;;;0.00;0.00;;;;;;;31.05;21.96;96099.53;6218240;23;20080;-75
2022/04/09 10:54:43;;;;;;;0.00;0.00;;;;;;;32.30;20.05;96081.66;6219186;23;20514;-74
2022/04/09 10:57:40;;;;;;;0.00;0.00;;;;;;;34.13;18.57;96095.00;6244473;23;20086;-77
2022/04/09 11:00:07;;;;;;;3.50;1.75;;;;;;;34.15;17.45;96059.44;6218535;23;20004;-74
2022/04/09 11:02:32;;;;;;;0.00;0.00;;;;;;;34.32;18.03;96060.00;6218323;23;20079;-74
2022/04/09 11:05:18;;;;;;;0.00;0.00;;;;;;;36.42;16.87;96059.03;6243825;23;20000;-76
2022/04/09 11:08:07;;;;;;;0.10;0.10;;;;;;;36.58;16.48;96043.00;6218527;23;20011;-76
2022/04/09 11:10:33;;;;;;;0.00;0.00;;;;;;;36.56;16.35;96050.84;6218384;23;20055;-76
2022/04/09 11:12:58;;;;;;;0.00;0.00;;;;;;;36.49;15.93;96041.13;6243769;23;20376;-76
2022/04/09 11:15:24;;;;;;;0.10;0.10;;;;;;;36.52;15.93;96038.59;6243561;23;20012;-76
2022/04/09 11:17:50;;;;;;;0.00;0.00;;;;;;;35.52;16.72;96040.31;6218266;23;20482;-76
2022/04/09 11:20:21;;;;;;;0.00;0.00;;;;;;;35.70;16.74;96032.13;6243923;22;20518;-76
2022/04/09 11:22:50;;;;;;;0.00;0.00;;;;;;;36.70;16.18;96043.41;6219268;23;20005;-75
2022/04/09 11:25:22;;;;;;;0.45;0.20;;;;;;;37.57;15.48;96032.78;6218564;23;20015;-76
2022/04/09 11:27:48;;;;;;;0.00;0.00;;;;;;;38.15;14.92;96026.84;6243370;22;20004;-76
2022/04/09 11:30:13;;;;;;;0.00;0.00;;;;;;;37.78;15.23;96020.16;6243488;23;20008;-76
2022/04/09 11:32:39;;;;;;;0.00;0.00;;;;;;;38.14;15.07;96036.34;6243288;23;20289;-77
2022/04/09 11:35:10;;;;;;;0.00;0.00;;;;;;;37.94;15.22;96029.13;6243722;23;20015;-76
2022/04/09 11:37:39;;;;;;;0.00;0.00;;;;;;;38.24;15.08;96014.63;6243375;23;20008;-76